Fort Myers Beach, FL

4:15 PM EDT on September 02, 2014 (GMT -0400)
Pearl Street | Change Station
CLOSE
Current Station
Personal Weather Station
Location: Fort Myers Beach, FL
Elevation: 16 ft
Nearby Weather Stations

Elev 16 ft 26.45 °N, 81.95 °W | Updated 7 seconds ago

Overcast
Overcast
82.2 °F
Feels Like 88 °F
N
10.5
Wind Variable Wind from West
Gusts 10.5 mph

Today
High -- | Low -- °F
--% Chance of Precip.
Yesterday
High -- | Low -- °F
Precip. -- in
7:07 AM 7:46 PM
First Quarter, 54% visible
Pressure 29.99 in
Visibility 2.5 miles
Clouds Mostly Cloudy 4200 ft
Overcast 5000 ft
Heat Index 88 °F
Dew Point 73 °F
Humidity 73%
Rainfall 0.04 in
Snow Depth Not available.
UV 3 out of 12
Pollen 4.20 out of 12
Air Quality Not available.
Flu Activity Not available.
SPECI KFMY 022009Z 16006KT 2 1/2SM VCTS -RA BKN042 OVC050 28/24 A2999 RMK AO2 LTG DSNT E-SW RAB1956 P0009 T02780239

More Conditions Fewer Conditions

Pressure 29.99 in
Visibility 2.5 miles
Clouds Mostly Cloudy 4200 ft
Overcast 5000 ft
Heat Index 88 °F
Dew Point 73 °F
Humidity 73%
Rainfall 0.04 in
Snow Depth Not available.
UV 3 out of 12
Pollen 4.20 out of 12
Air Quality Not available.
Flu Activity Not available.
SPECI KFMY 022009Z 16006KT 2 1/2SM VCTS -RA BKN042 OVC050 28/24 A2999 RMK AO2 LTG DSNT E-SW RAB1956 P0009 T02780239

More Conditions Fewer Conditions

10-Day Weather Forecast

Almanac

Astronomy

Sep. 02, 2014 Rise Set
Actual Time 7:07 AM EDT 7:46 PM EDT
Civil Twilight 6:44 AM EDT 8:09 PM EDT
Nautical Twilight 6:16 AM EDT 8:37 PM EDT
Astronomical Twilight 5:48 AM EDT 9:05 PM EDT
Moon 2:11 PM EDT 12:25 AM EDT
Length of Visible Light 13h 25m
Length of Day
12h 38m
Tomorrow will be 1m 29s shorter.
First Quarter, 54% of the Moon is Illuminated
Today
First Quarter
Sep 8
Full
Sep 15
Last Quarter
Sep 24
New
Oct 1
First Quarter

Today's Extremes

State Highs State Lows

Community

WunderPhotos

Upload Photos

1,749,752 photos uploaded!

WunderBlogs® & News

By Dr. Jeff Masters
Director of Meteorology, Weather Underground
By Kari Strenfel
Meteorologist, Weather Underground
By Christopher C. Burt
Weather Historian, Weather Underground
September 2, 2014
September 2, 2014
September 2, 2014

Nearby

Snow Depth

Station Depth Elevation
No new snow has been reported.

Earthquake Activity

City Distance Mag. Time & Date
No recent earthquake activity has been reported nearby.
Minimum magnitude displayed is 2.5.

Coastal Water Temperatures

Place Temperature
Fort Myers, FL 91.0 °F

Nearby Weather Stations